Aérodrome :
LOGIN :

S'inscrire | Disclaimer

   EN    FR    IT 

 










Légende :    VFR   VFR Marginal   IFR   IFR Intensif   IFR Très Intensif
Visi : 
Plafond : 
>= 8 km
>= 3000ft
5 à 8 km
1000 à 3000 ft
1500m à 5 km
500 à 1000 ft
800 à 1500m
200 à 500 ft
< 800m
< 200 ft
Symboles :   Orages  Brouillard  Fortes neiges  Fortes précipitations  Vent > 20 kt
SIGMETs :   Divers  Orages  Givrage  Turbulence  Onde Orograph.  Cendres Volcan.







- Altitude de l'aérodrome : 300 ft
- Code IATA : MLA


LMML - Malta Luqa

DERNIER METAR :
  • 202045Z 08016KT 9999 BKN011 15/12 Q1015 NOSIG

METARs EXPIRÉS :
  • 202015Z 09022G32KT 9999 BKN011 15/12 Q1015 NOSIG
  • 201945Z 08018G33KT 9999 BKN011 15/13 Q1015 NOSIG
  • 201915Z 09018G29KT 9999 BKN011 15/13 Q1015 NOSIG
  • 201845Z 09021G31KT 9999 BKN011 15/13 Q1015 NOSIG
  • 201815Z 08017G28KT 9999 SCT011 15/13 Q1014 NOSIG

TAF TAF LMML
Valide du 20 à 18h jusqu'au 21 à 18h UTC


201700Z 2018/2118 08023G33KT 9999 BKN009
TEMPO 2018/2022 7000 SHRA BKN008
PROB30
TEMPO 2018/2022 4000 TSRA BKN008 BKN070CB
PROB40 2110/2118 7000 RA BKN009 BKN018
PROB30
TEMPO 2110/2118 4000 TSRA BKN009 BKN050CB
BECMG 2111/2114 15014KT
BECMG 2114/2117 21012KT
Pas de NOTAMs connus pour ce terrain.



MET'MAP, la Météo Aéronautique d'un coup d'oeil ! - Copyright ORBIFLY Décembre 2007 - Disclaimer

ORBIFLY MET'MAP TEAM :

Programmation & Développement : Alexandra Zaïnal
Conception & Développement : Baudouin d'Aumeries
Co-Programmation & Développement : Marc-Olivier Méhu
Soutien technique & logistique : Manuel Goepfert

Contact : metmap@orbifly.com




SOURCES & CREDITS :

   NOAA